Buoy 21539

sailwx.info

Track history (hours):
 
Tides and Currents Weather Stations Pressure Air Temp Water Temp Dewpoint Dewpoint Depression Visibility Wind Speed Wind Dir Waves Ship Positions

Drifting buoy 21539

Last reported at 2016-Sep-25 10:10 UTC. Time now 2016-Sep-25 12:19 UTC.
Position N 42°59' W 133°16'.

Barometer 1026.3 mb
Water temperature 18.7 ° C

Date/timePositionNaut miles runAvg speedWind from/ knotsBaromVisibWave heightAir tempDewpointWater temp
2016-Sep-25 10:10N 42°59' W 133°16'1 0.4 1026.3 18.7
2016-Sep-25 07:10N 42°59' W 133°17'1 0.3 1026.8 18.7
2016-Sep-25 05:10N 42°59' W 133°17'1 1.5 1026.5 18.8
2016-Sep-25 04:10N 42°58' W 133°18'1 0.5 1025.8 18.8
2016-Sep-25 02:10N 42°58' W 133°20'1 0.4 1025.0 18.8
2016-Sep-25 00:10N 42°57' W 133°20'1 0.6 1024.4 18.8
2016-Sep-24 23:10N 42°57' W 133°20'0 0.0 1024.4 18.8
2016-Sep-24 22:10N 42°57' W 133°20'0 0.1 1024.4 18.8
2016-Sep-24 18:10N 42°57' W 133°20'1 0.6 1024.1 18.7
2016-Sep-24 16:10N 42°58' W 133°22'1 1.3 1023.2 18.7
2016-Sep-24 15:10N 42°58' W 133°23'1 1.0 1022.7 18.7
2016-Sep-24 14:10N 42°58' W 133°25'2 1.8 1022.2 18.7
2016-Sep-24 13:10N 42°57' W 133°26'1 1.3 1021.8 18.7
2016-Sep-24 12:10N 42°56' W 133°27'3 1.3 1021.8 18.7
2016-Sep-24 10:10N 42°53' W 133°26'0 0.0 1022.9 18.7
2016-Sep-24 06:10N 42°53' W 133°26'1 0.3 1023.3 18.7
2016-Sep-24 04:10N 42°54' W 133°25'0 0.1 1023.7 18.7
2016-Sep-24 02:10N 42°54' W 133°25'0 0.2 1022.7 18.8
2016-Sep-24 01:10N 42°54' W 133°25'1 0.9 1023.3 18.8
2016-Sep-24 00:10N 42°54' W 133°26'1 0.4 1023.0 18.8
2016-Sep-23 22:10N 42°54' W 133°25'1 0.6 1022.2 18.8
2016-Sep-23 20:10N 42°54' W 133°24'0 0.2 1022.0 18.7
2016-Sep-23 18:10N 42°53' W 133°24'1 0.5 1020.8 18.6
2016-Sep-23 16:10N 42°54' W 133°24'0 0.2 1019.1 18.5
2016-Sep-23 15:10N 42°54' W 133°24'0 0.3 1018.4 18.5
2016-Sep-23 14:10N 42°55' W 133°24'0 0.2 1017.9 18.5
2016-Sep-23 13:10N 42°55' W 133°24'1 0.8 1017.2 18.5
2016-Sep-23 12:10N 42°55' W 133°23'0 0.0 1016.1 18.5
2016-Sep-23 11:10N 42°55' W 133°23'2 2.2 1015.8 18.5
2016-Sep-23 10:10N 42°56' W 133°26'0 0.0 1015.5 18.5
2016-Sep-23 07:10N 42°56' W 133°26'0 0.5 1014.4 18.6
2016-Sep-23 06:10N 42°55' W 133°26'2 1.7 1014.1 18.6
2016-Sep-23 05:10N 42°55' W 133°28'1 0.6 1014.0 18.7
2016-Sep-23 03:10N 42°56' W 133°30'1 0.9 1014.8 18.7
2016-Sep-23 02:10N 42°56' W 133°31'0 0.2 1015.3 18.7
2016-Sep-23 01:10N 42°56' W 133°31'3 3.0 1015.9 18.7
2016-Sep-23 00:10N 42°56' W 133°35'0 0.0 1016.7 18.7
2016-Sep-22 23:10N 42°56' W 133°35'0 0.0 1017.5 18.7
2016-Sep-22 22:10N 42°56' W 133°35'2 1.5 1018.3 18.7
2016-Sep-22 21:10N 42°55' W 133°37'1 0.7 1018.7 18.7
2016-Sep-22 19:10N 42°54' W 133°37'1 0.6 1019.8 18.7
2016-Sep-22 18:10N 42°54' W 133°38'1 0.9 1020.0 18.7
2016-Sep-22 17:10N 42°53' W 133°39'1 0.8 1020.0 18.7
2016-Sep-22 16:10N 42°53' W 133°38'1 0.7 1020.2 18.7
2016-Sep-22 15:10N 42°54' W 133°39'0 0.1 1020.2 18.7
2016-Sep-22 14:10N 42°54' W 133°39'3 1.0 1020.3 18.7
2016-Sep-22 11:10N 42°55' W 133°43'0 0.0 1021.6 18.7
2016-Sep-22 10:10N 42°55' W 133°43'0 0.1 1022.1 18.7
2016-Sep-22 07:10N 42°55' W 133°43'0 0.2 1023.2 18.8
2016-Sep-22 06:10N 42°55' W 133°43'1 0.7 1023.9 18.8
2016-Sep-22 05:10N 42°55' W 133°44'0 0.3 1024.0 18.8
2016-Sep-22 04:10N 42°55' W 133°44'0 0.4 1023.8 18.9
2016-Sep-22 03:10N 42°55' W 133°44'0 0.4 1023.5 18.9
2016-Sep-22 02:10N 42°56' W 133°44'0 0.2 1023.7 18.9
2016-Sep-22 01:10N 42°56' W 133°45'1 0.6 1024.0 19.0
2016-Sep-22 00:10N 42°56' W 133°44'0 0.2 1024.6 19.0
2016-Sep-21 22:10N 42°57' W 133°45'1 1.1 1025.3 18.9
2016-Sep-21 21:10N 42°58' W 133°45'1 0.4 1025.8 18.9
2016-Sep-21 19:10N 42°58' W 133°45'0 0.0 1026.1 18.8
2016-Sep-21 18:10N 42°58' W 133°45'0 0.5 1026.4 18.8
2016-Sep-21 17:10N 42°59' W 133°45'2 1.8 1026.1 18.8
2016-Sep-21 16:10N 42°60' W 133°43'1 0.9 1025.9 18.8
2016-Sep-21 15:10N 42°60' W 133°44'2 1.6 1025.6 18.8
2016-Sep-21 14:10N 43°01' W 133°44'1 0.9 1025.4 18.8
2016-Sep-21 13:10N 43°02' W 133°44'1 0.6 1025.3 18.8
2016-Sep-21 12:10N 43°02' W 133°45'2 0.4 1025.2 18.8
2016-Sep-21 07:10N 43°03' W 133°48'0 0.3 1026.4 18.8
2016-Sep-21 06:10N 43°03' W 133°48'0 0.0 1026.1 18.8
2016-Sep-21 05:10N 43°03' W 133°48'2 1.5 1026.2 18.8
2016-Sep-21 04:10N 43°05' W 133°48'1 0.7 1025.9 18.8
2016-Sep-21 03:10N 43°05' W 133°47'1 1.1 1025.9 18.8
2016-Sep-21 02:10N 43°06' W 133°47'1 0.7 1026.0 18.8
2016-Sep-21 01:10N 43°06' W 133°47'0 0.4 1026.0 18.8
2016-Sep-21 00:10N 43°06' W 133°47'2 2.2 1026.0 18.8
2016-Sep-20 23:10N 43°08' W 133°48'0 0.1 1026.2 18.8
2016-Sep-20 21:10N 43°08' W 133°48'3 1.3 1026.9 18.8
2016-Sep-20 19:10N 43°10' W 133°50'0 0.4 1027.4 18.7
2016-Sep-20 18:10N 43°10' W 133°50'0 0.3 1027.4 18.7
2016-Sep-20 17:10N 43°10' W 133°50'1 1.3 1027.4 18.7
2016-Sep-20 16:10N 43°11' W 133°51'1 0.6 1027.4 18.7
2016-Sep-20 15:10N 43°10' W 133°52'1 0.5 1026.9 18.7
2016-Sep-20 14:10N 43°11' W 133°51'1 1.1 1026.5 18.7
2016-Sep-20 13:10N 43°11' W 133°52'0 0.0 1026.4 18.8
2016-Sep-20 12:10N 43°11' W 133°52'1 1.4 1026.2 18.8
2016-Sep-20 11:10N 43°13' W 133°52'0 0.0 1026.3 18.8
2016-Sep-20 09:10N 43°13' W 133°52'0 0.1 1026.4 18.8
2016-Sep-20 06:10N 43°13' W 133°53'1 0.5 1026.7 18.8
2016-Sep-20 05:10N 43°14' W 133°53'1 0.8 1026.7 18.9
2016-Sep-20 04:10N 43°14' W 133°53'0 0.2 1026.1 18.9
2016-Sep-20 03:10N 43°15' W 133°53'2 0.7 1025.9 18.9
2016-Sep-20 00:10N 43°16' W 133°55'0 0.0 1025.7 19.0
2016-Sep-19 23:10N 43°16' W 133°55'1 0.5 1025.8 19.0
2016-Sep-19 21:10N 43°17' W 133°56'1 1.0 1026.0 18.9
2016-Sep-19 20:10N 43°17' W 133°57'1 0.3 1025.9 18.9
2016-Sep-19 18:10N 43°18' W 133°57'0 0.4 1025.8 18.8
2016-Sep-19 17:10N 43°18' W 133°58'0 0.0 1025.4 18.8
2016-Sep-19 16:10N 43°18' W 133°57'0 0.4 1025.5 18.8
2016-Sep-19 15:10N 43°18' W 133°57'1 0.5 1025.1 18.8
2016-Sep-19 14:10N 43°18' W 133°58'1 0.5 1024.8 18.8
2016-Sep-19 13:10N 43°18' W 133°57'3 1.6 1024.4 18.8
2016-Sep-19 11:10N 43°21' W 133°59'0 0.0 1024.2 18.8
2016-Sep-19 09:10N 43°21' W 133°59'0 0.0 1024.1 18.8
2016-Sep-19 07:10N 43°21' W 133°59'0 0.4 1024.3 18.8
2016-Sep-19 06:10N 43°21' W 133°60'0 0.5 1023.7 18.8
2016-Sep-19 05:10N 43°22' W 134°00'0 0.5 1023.8 18.8
2016-Sep-19 04:10N 43°22' W 134°01'0 0.5 1023.2 18.8
2016-Sep-19 03:10N 43°22' W 134°01'0 0.2 1023.0 18.8
2016-Sep-19 02:10N 43°22' W 134°01'1 0.8 1022.8 18.8
2016-Sep-19 01:10N 43°23' W 134°02'1 0.6 1022.4 18.8
2016-Sep-19 00:10N 43°23' W 134°02'1 0.8 1022.2 18.8
2016-Sep-18 23:10N 43°24' W 134°02'1 0.4 1022.2 18.8
2016-Sep-18 21:10N 43°24' W 134°01'0 0.0 1022.4 18.8
2016-Sep-18 20:10N 43°24' W 134°01'1 0.4 1022.5 18.8
2016-Sep-18 18:10N 43°24' W 134°02'1 0.8 1021.6 18.7
2016-Sep-18 17:10N 43°25' W 134°03'0 0.0 1021.3 18.7
2016-Sep-18 16:10N 43°25' W 134°03'1 1.1 1021.2 18.7
2016-Sep-18 15:10N 43°25' W 134°04'0 0.3 1020.6 18.7
2016-Sep-18 14:10N 43°26' W 134°04'1 0.8 1020.5 18.7
2016-Sep-18 13:10N 43°26' W 134°05'0 0.2 1019.5 18.7
2016-Sep-18 12:10N 43°26' W 134°05'1 0.9 1019.3 18.7
2016-Sep-18 11:10N 43°26' W 134°06'2 1.5 1019.8 18.8
2016-Sep-18 10:10N 43°25' W 134°07'2 1.6 1019.8 18.8
2016-Sep-18 09:10N 43°26' W 134°06'2 0.8 1019.7 18.8
2016-Sep-18 07:10N 43°25' W 134°07'0 0.2 1020.0 18.8
2016-Sep-18 06:10N 43°24' W 134°07'1 1.0 1020.0 18.8
2016-Sep-18 05:10N 43°23' W 134°07'1 0.7 1020.1 18.8
2016-Sep-18 04:10N 43°23' W 134°06'0 0.2 1019.8 18.8
2016-Sep-18 03:10N 43°24' W 134°06'1 0.7 1019.7 18.8
2016-Sep-18 02:10N 43°24' W 134°05'1 1.4 1019.6 18.8
2016-Sep-18 01:10N 43°26' W 134°05'0 0.2 1019.4 18.8
2016-Sep-18 00:10N 43°26' W 134°05'0 0.3 1019.2 18.8
2016-Sep-17 23:10N 43°26' W 134°05'1 0.6 1019.1 18.8
2016-Sep-17 21:10N 43°27' W 134°05'2 1.5 1018.2 18.7
2016-Sep-17 20:10N 43°27' W 134°07'1 0.6 1017.9 18.7
2016-Sep-17 19:10N 43°28' W 134°08'1 0.8 1017.3 18.7
2016-Sep-17 18:10N 43°28' W 134°09'0 0.0 1016.5 18.7
2016-Sep-17 17:10N 43°28' W 134°09'2 1.8 1014.9 18.7
2016-Sep-17 16:10N 43°27' W 134°11'0 0.2 1014.9 18.8
2016-Sep-17 14:10N 43°26' W 134°11'0 0.3 1015.6 18.8
2016-Sep-17 13:10N 43°26' W 134°10'1 0.5 1016.0 18.8
2016-Sep-17 12:10N 43°26' W 134°11'2 0.9 1016.5 18.8
2016-Sep-17 10:10N 43°28' W 134°13'0 0.1 1017.1 18.8
2016-Sep-17 07:10N 43°27' W 134°13'1 0.9 1017.8 18.9
2016-Sep-17 06:10N 43°27' W 134°14'1 0.7 1017.8 18.9
2016-Sep-17 05:10N 43°27' W 134°15'1 0.5 1017.9 18.9
2016-Sep-17 04:10N 43°27' W 134°15'1 0.7 1017.6 18.9
2016-Sep-17 03:10N 43°26' W 134°15'0 0.4 1017.4 18.9
2016-Sep-17 02:10N 43°26' W 134°16'0 0.4 1017.6 18.9
2016-Sep-17 01:10N 43°26' W 134°16'0 0.2 1017.8 18.9
2016-Sep-17 00:10N 43°26' W 134°16'0 0.0 1018.4 18.8
2016-Sep-16 23:10N 43°26' W 134°16'0 0.4 1018.5 18.8
2016-Sep-16 22:10N 43°26' W 134°17'2 0.6 1019.0 18.8
2016-Sep-16 19:10N 43°26' W 134°19'0 0.3 1020.2 18.7
2016-Sep-16 18:10N 43°26' W 134°19'1 0.6 1020.1 18.7
2016-Sep-16 17:10N 43°26' W 134°20'0 0.1 1020.0 18.7
2016-Sep-16 16:10N 43°26' W 134°20'1 1.0 1020.2 18.7
2016-Sep-16 15:10N 43°25' W 134°21'1 0.7 1020.4 18.7
2016-Sep-16 14:10N 43°25' W 134°22'1 0.7 1020.1 18.7
2016-Sep-16 13:10N 43°25' W 134°23'0 0.4 1020.9 18.7
2016-Sep-16 12:10N 43°25' W 134°23'0 0.0 1021.1 18.7
2016-Sep-16 11:10N 43°25' W 134°23'2 1.5 1021.3 18.8
2016-Sep-16 10:10N 43°25' W 134°25'0 0.0 1022.2 18.8
2016-Sep-16 08:10N 43°25' W 134°25'1 0.3 1022.7 18.8
2016-Sep-16 06:10N 43°25' W 134°25'0 0.4 1023.1 19.0
2016-Sep-16 05:10N 43°25' W 134°25'1 0.6 1023.4 19.1
2016-Sep-16 03:10N 43°25' W 134°27'0 0.4 1023.2 19.3
2016-Sep-16 02:10N 43°25' W 134°28'0 0.1 1023.3 19.5
2016-Sep-16 01:10N 43°25' W 134°28'0 0.4 1023.4 19.6
2016-Sep-16 00:10N 43°25' W 134°28'1 0.7 1023.5 19.9
2016-Sep-15 23:10N 43°25' W 134°29'0 0.0 1023.6 20.3
2016-Sep-15 22:10N 43°25' W 134°29'0 0.3 1023.8 20.4
2016-Sep-15 21:10N 43°26' W 134°29'0 0.2 1023.9 19.6
2016-Sep-15 20:10N 43°25' W 134°29'0 0.0 1023.9 19.1
2016-Sep-15 18:10N 43°25' W 134°29'1 0.6 1024.1 18.6
2016-Sep-15 17:10N 43°25' W 134°30'0 0.4 1023.6 18.5
2016-Sep-15 16:10N 43°25' W 134°30'1 0.7 1023.5 18.6
2016-Sep-15 15:10N 43°25' W 134°31'0 0.2 1023.3 18.6
2016-Sep-15 14:10N 43°25' W 134°30'0 0.4 1023.4 18.6
2016-Sep-15 13:10N 43°25' W 134°31'0 0.4 1023.6 18.6
2016-Sep-15 12:10N 43°26' W 134°31'1 0.3 1023.4 18.6
2016-Sep-15 10:10N 43°25' W 134°32'   1023.7 18.7
Track history (hours):
 
Tides and Currents Weather Stations Pressure Air Temp Water Temp Dewpoint Dewpoint Depression Visibility Wind Speed Wind Dir Waves Ship Positions

Drifting buoy 21539

Last reported at 2016-Sep-25 10:10 UTC. Time now 2016-Sep-25 12:19 UTC.
Position N 42°59' W 133°16'.

Barometer 1026.3 mb
Water temperature 18.7 ° C

Date/timePositionNaut miles runAvg speedWind from/ knotsBaromVisibWave heightAir tempDewpointWater temp
2016-Sep-25 10:10N 42°59' W 133°16'1 0.4 1026.3 18.7
2016-Sep-25 07:10N 42°59' W 133°17'1 0.3 1026.8 18.7
2016-Sep-25 05:10N 42°59' W 133°17'1 1.5 1026.5 18.8
2016-Sep-25 04:10N 42°58' W 133°18'1 0.5 1025.8 18.8
2016-Sep-25 02:10N 42°58' W 133°20'1 0.4 1025.0 18.8
2016-Sep-25 00:10N 42°57' W 133°20'1 0.6 1024.4 18.8
2016-Sep-24 23:10N 42°57' W 133°20'0 0.0 1024.4 18.8
2016-Sep-24 22:10N 42°57' W 133°20'0 0.1 1024.4 18.8
2016-Sep-24 18:10N 42°57' W 133°20'1 0.6 1024.1 18.7
2016-Sep-24 16:10N 42°58' W 133°22'1 1.3 1023.2 18.7
2016-Sep-24 15:10N 42°58' W 133°23'1 1.0 1022.7 18.7
2016-Sep-24 14:10N 42°58' W 133°25'2 1.8 1022.2 18.7
2016-Sep-24 13:10N 42°57' W 133°26'1 1.3 1021.8 18.7
2016-Sep-24 12:10N 42°56' W 133°27'3 1.3 1021.8 18.7
2016-Sep-24 10:10N 42°53' W 133°26'0 0.0 1022.9 18.7
2016-Sep-24 06:10N 42°53' W 133°26'1 0.3 1023.3 18.7
2016-Sep-24 04:10N 42°54' W 133°25'0 0.1 1023.7 18.7
2016-Sep-24 02:10N 42°54' W 133°25'0 0.2 1022.7 18.8
2016-Sep-24 01:10N 42°54' W 133°25'1 0.9 1023.3 18.8
2016-Sep-24 00:10N 42°54' W 133°26'1 0.4 1023.0 18.8
2016-Sep-23 22:10N 42°54' W 133°25'1 0.6 1022.2 18.8
2016-Sep-23 20:10N 42°54' W 133°24'0 0.2 1022.0 18.7
2016-Sep-23 18:10N 42°53' W 133°24'1 0.5 1020.8 18.6
2016-Sep-23 16:10N 42°54' W 133°24'0 0.2 1019.1 18.5
2016-Sep-23 15:10N 42°54' W 133°24'0 0.3 1018.4 18.5
2016-Sep-23 14:10N 42°55' W 133°24'0 0.2 1017.9 18.5
2016-Sep-23 13:10N 42°55' W 133°24'1 0.8 1017.2 18.5
2016-Sep-23 12:10N 42°55' W 133°23'0 0.0 1016.1 18.5
2016-Sep-23 11:10N 42°55' W 133°23'2 2.2 1015.8 18.5
2016-Sep-23 10:10N 42°56' W 133°26'0 0.0 1015.5 18.5
2016-Sep-23 07:10N 42°56' W 133°26'0 0.5 1014.4 18.6
2016-Sep-23 06:10N 42°55' W 133°26'2 1.7 1014.1 18.6
2016-Sep-23 05:10N 42°55' W 133°28'1 0.6 1014.0 18.7
2016-Sep-23 03:10N 42°56' W 133°30'1 0.9 1014.8 18.7
2016-Sep-23 02:10N 42°56' W 133°31'0 0.2 1015.3 18.7
2016-Sep-23 01:10N 42°56' W 133°31'3 3.0 1015.9 18.7
2016-Sep-23 00:10N 42°56' W 133°35'0 0.0 1016.7 18.7
2016-Sep-22 23:10N 42°56' W 133°35'0 0.0 1017.5 18.7
2016-Sep-22 22:10N 42°56' W 133°35'2 1.5 1018.3 18.7
2016-Sep-22 21:10N 42°55' W 133°37'1 0.7 1018.7 18.7
2016-Sep-22 19:10N 42°54' W 133°37'1 0.6 1019.8 18.7
2016-Sep-22 18:10N 42°54' W 133°38'1 0.9 1020.0 18.7
2016-Sep-22 17:10N 42°53' W 133°39'1 0.8 1020.0 18.7
2016-Sep-22 16:10N 42°53' W 133°38'1 0.7 1020.2 18.7
2016-Sep-22 15:10N 42°54' W 133°39'0 0.1 1020.2 18.7
2016-Sep-22 14:10N 42°54' W 133°39'3 1.0 1020.3 18.7
2016-Sep-22 11:10N 42°55' W 133°43'0 0.0 1021.6 18.7
2016-Sep-22 10:10N 42°55' W 133°43'0 0.1 1022.1 18.7
2016-Sep-22 07:10N 42°55' W 133°43'0 0.2 1023.2 18.8
2016-Sep-22 06:10N 42°55' W 133°43'1 0.7 1023.9 18.8
2016-Sep-22 05:10N 42°55' W 133°44'0 0.3 1024.0 18.8
2016-Sep-22 04:10N 42°55' W 133°44'0 0.4 1023.8 18.9
2016-Sep-22 03:10N 42°55' W 133°44'0 0.4 1023.5 18.9
2016-Sep-22 02:10N 42°56' W 133°44'0 0.2 1023.7 18.9
2016-Sep-22 01:10N 42°56' W 133°45'1 0.6 1024.0 19.0
2016-Sep-22 00:10N 42°56' W 133°44'0 0.2 1024.6 19.0
2016-Sep-21 22:10N 42°57' W 133°45'1 1.1 1025.3 18.9
2016-Sep-21 21:10N 42°58' W 133°45'1 0.4 1025.8 18.9
2016-Sep-21 19:10N 42°58' W 133°45'0 0.0 1026.1 18.8
2016-Sep-21 18:10N 42°58' W 133°45'0 0.5 1026.4 18.8
2016-Sep-21 17:10N 42°59' W 133°45'2 1.8 1026.1 18.8
2016-Sep-21 16:10N 42°60' W 133°43'1 0.9 1025.9 18.8
2016-Sep-21 15:10N 42°60' W 133°44'2 1.6 1025.6 18.8
2016-Sep-21 14:10N 43°01' W 133°44'1 0.9 1025.4 18.8
2016-Sep-21 13:10N 43°02' W 133°44'1 0.6 1025.3 18.8
2016-Sep-21 12:10N 43°02' W 133°45'2 0.4 1025.2 18.8
2016-Sep-21 07:10N 43°03' W 133°48'0 0.3 1026.4 18.8
2016-Sep-21 06:10N 43°03' W 133°48'0 0.0 1026.1 18.8
2016-Sep-21 05:10N 43°03' W 133°48'2 1.5 1026.2 18.8
2016-Sep-21 04:10N 43°05' W 133°48'1 0.7 1025.9 18.8
2016-Sep-21 03:10N 43°05' W 133°47'1 1.1 1025.9 18.8
2016-Sep-21 02:10N 43°06' W 133°47'1 0.7 1026.0 18.8
2016-Sep-21 01:10N 43°06' W 133°47'0 0.4 1026.0 18.8
2016-Sep-21 00:10N 43°06' W 133°47'2 2.2 1026.0 18.8
2016-Sep-20 23:10N 43°08' W 133°48'0 0.1 1026.2 18.8
2016-Sep-20 21:10N 43°08' W 133°48'3 1.3 1026.9 18.8
2016-Sep-20 19:10N 43°10' W 133°50'0 0.4 1027.4 18.7
2016-Sep-20 18:10N 43°10' W 133°50'0 0.3 1027.4 18.7
2016-Sep-20 17:10N 43°10' W 133°50'1 1.3 1027.4 18.7
2016-Sep-20 16:10N 43°11' W 133°51'1 0.6 1027.4 18.7
2016-Sep-20 15:10N 43°10' W 133°52'1 0.5 1026.9 18.7
2016-Sep-20 14:10N 43°11' W 133°51'1 1.1 1026.5 18.7
2016-Sep-20 13:10N 43°11' W 133°52'0 0.0 1026.4 18.8
2016-Sep-20 12:10N 43°11' W 133°52'1 1.4 1026.2 18.8
2016-Sep-20 11:10N 43°13' W 133°52'0 0.0 1026.3 18.8
2016-Sep-20 09:10N 43°13' W 133°52'0 0.1 1026.4 18.8
2016-Sep-20 06:10N 43°13' W 133°53'1 0.5 1026.7 18.8
2016-Sep-20 05:10N 43°14' W 133°53'1 0.8 1026.7 18.9
2016-Sep-20 04:10N 43°14' W 133°53'0 0.2 1026.1 18.9
2016-Sep-20 03:10N 43°15' W 133°53'2 0.7 1025.9 18.9
2016-Sep-20 00:10N 43°16' W 133°55'0 0.0 1025.7 19.0
2016-Sep-19 23:10N 43°16' W 133°55'1 0.5 1025.8 19.0
2016-Sep-19 21:10N 43°17' W 133°56'1 1.0 1026.0 18.9
2016-Sep-19 20:10N 43°17' W 133°57'1 0.3 1025.9 18.9
2016-Sep-19 18:10N 43°18' W 133°57'0 0.4 1025.8 18.8
2016-Sep-19 17:10N 43°18' W 133°58'0 0.0 1025.4 18.8
2016-Sep-19 16:10N 43°18' W 133°57'0 0.4 1025.5 18.8
2016-Sep-19 15:10N 43°18' W 133°57'1 0.5 1025.1 18.8
2016-Sep-19 14:10N 43°18' W 133°58'1 0.5 1024.8 18.8
2016-Sep-19 13:10N 43°18' W 133°57'3 1.6 1024.4 18.8
2016-Sep-19 11:10N 43°21' W 133°59'0 0.0 1024.2 18.8
2016-Sep-19 09:10N 43°21' W 133°59'0 0.0 1024.1 18.8
2016-Sep-19 07:10N 43°21' W 133°59'0 0.4 1024.3 18.8
2016-Sep-19 06:10N 43°21' W 133°60'0 0.5 1023.7 18.8
2016-Sep-19 05:10N 43°22' W 134°00'0 0.5 1023.8 18.8
2016-Sep-19 04:10N 43°22' W 134°01'0 0.5 1023.2 18.8
2016-Sep-19 03:10N 43°22' W 134°01'0 0.2 1023.0 18.8
2016-Sep-19 02:10N 43°22' W 134°01'1 0.8 1022.8 18.8
2016-Sep-19 01:10N 43°23' W 134°02'1 0.6 1022.4 18.8
2016-Sep-19 00:10N 43°23' W 134°02'1 0.8 1022.2 18.8
2016-Sep-18 23:10N 43°24' W 134°02'1 0.4 1022.2 18.8
2016-Sep-18 21:10N 43°24' W 134°01'0 0.0 1022.4 18.8
2016-Sep-18 20:10N 43°24' W 134°01'1 0.4 1022.5 18.8
2016-Sep-18 18:10N 43°24' W 134°02'1 0.8 1021.6 18.7
2016-Sep-18 17:10N 43°25' W 134°03'0 0.0 1021.3 18.7
2016-Sep-18 16:10N 43°25' W 134°03'1 1.1 1021.2 18.7
2016-Sep-18 15:10N 43°25' W 134°04'0 0.3 1020.6 18.7
2016-Sep-18 14:10N 43°26' W 134°04'1 0.8 1020.5 18.7
2016-Sep-18 13:10N 43°26' W 134°05'0 0.2 1019.5 18.7
2016-Sep-18 12:10N 43°26' W 134°05'1 0.9 1019.3 18.7
2016-Sep-18 11:10N 43°26' W 134°06'2 1.5 1019.8 18.8
2016-Sep-18 10:10N 43°25' W 134°07'2 1.6 1019.8 18.8
2016-Sep-18 09:10N 43°26' W 134°06'2 0.8 1019.7 18.8
2016-Sep-18 07:10N 43°25' W 134°07'0 0.2 1020.0 18.8
2016-Sep-18 06:10N 43°24' W 134°07'1 1.0 1020.0 18.8
2016-Sep-18 05:10N 43°23' W 134°07'1 0.7 1020.1 18.8
2016-Sep-18 04:10N 43°23' W 134°06'0 0.2 1019.8 18.8
2016-Sep-18 03:10N 43°24' W 134°06'1 0.7 1019.7 18.8
2016-Sep-18 02:10N 43°24' W 134°05'1 1.4 1019.6 18.8
2016-Sep-18 01:10N 43°26' W 134°05'0 0.2 1019.4 18.8
2016-Sep-18 00:10N 43°26' W 134°05'0 0.3 1019.2 18.8
2016-Sep-17 23:10N 43°26' W 134°05'1 0.6 1019.1 18.8
2016-Sep-17 21:10N 43°27' W 134°05'2 1.5 1018.2 18.7
2016-Sep-17 20:10N 43°27' W 134°07'1 0.6 1017.9 18.7
2016-Sep-17 19:10N 43°28' W 134°08'1 0.8 1017.3 18.7
2016-Sep-17 18:10N 43°28' W 134°09'0 0.0 1016.5 18.7
2016-Sep-17 17:10N 43°28' W 134°09'2 1.8 1014.9 18.7
2016-Sep-17 16:10N 43°27' W 134°11'0 0.2 1014.9 18.8
2016-Sep-17 14:10N 43°26' W 134°11'0 0.3 1015.6 18.8
2016-Sep-17 13:10N 43°26' W 134°10'1 0.5 1016.0 18.8
2016-Sep-17 12:10N 43°26' W 134°11'2 0.9 1016.5 18.8
2016-Sep-17 10:10N 43°28' W 134°13'0 0.1 1017.1 18.8
2016-Sep-17 07:10N 43°27' W 134°13'1 0.9 1017.8 18.9
2016-Sep-17 06:10N 43°27' W 134°14'1 0.7 1017.8 18.9
2016-Sep-17 05:10N 43°27' W 134°15'1 0.5 1017.9 18.9
2016-Sep-17 04:10N 43°27' W 134°15'1 0.7 1017.6 18.9
2016-Sep-17 03:10N 43°26' W 134°15'0 0.4 1017.4 18.9
2016-Sep-17 02:10N 43°26' W 134°16'0 0.4 1017.6 18.9
2016-Sep-17 01:10N 43°26' W 134°16'0 0.2 1017.8 18.9
2016-Sep-17 00:10N 43°26' W 134°16'0 0.0 1018.4 18.8
2016-Sep-16 23:10N 43°26' W 134°16'0 0.4 1018.5 18.8
2016-Sep-16 22:10N 43°26' W 134°17'2 0.6 1019.0 18.8
2016-Sep-16 19:10N 43°26' W 134°19'0 0.3 1020.2 18.7
2016-Sep-16 18:10N 43°26' W 134°19'1 0.6 1020.1 18.7
2016-Sep-16 17:10N 43°26' W 134°20'0 0.1 1020.0 18.7
2016-Sep-16 16:10N 43°26' W 134°20'1 1.0 1020.2 18.7
2016-Sep-16 15:10N 43°25' W 134°21'1 0.7 1020.4 18.7
2016-Sep-16 14:10N 43°25' W 134°22'1 0.7 1020.1 18.7
2016-Sep-16 13:10N 43°25' W 134°23'0 0.4 1020.9 18.7
2016-Sep-16 12:10N 43°25' W 134°23'0 0.0 1021.1 18.7
2016-Sep-16 11:10N 43°25' W 134°23'2 1.5 1021.3 18.8
2016-Sep-16 10:10N 43°25' W 134°25'0 0.0 1022.2 18.8
2016-Sep-16 08:10N 43°25' W 134°25'1 0.3 1022.7 18.8
2016-Sep-16 06:10N 43°25' W 134°25'0 0.4 1023.1 19.0
2016-Sep-16 05:10N 43°25' W 134°25'1 0.6 1023.4 19.1
2016-Sep-16 03:10N 43°25' W 134°27'0 0.4 1023.2 19.3
2016-Sep-16 02:10N 43°25' W 134°28'0 0.1 1023.3 19.5
2016-Sep-16 01:10N 43°25' W 134°28'0 0.4 1023.4 19.6
2016-Sep-16 00:10N 43°25' W 134°28'1 0.7 1023.5 19.9
2016-Sep-15 23:10N 43°25' W 134°29'0 0.0 1023.6 20.3
2016-Sep-15 22:10N 43°25' W 134°29'0 0.3 1023.8 20.4
2016-Sep-15 21:10N 43°26' W 134°29'0 0.2 1023.9 19.6
2016-Sep-15 20:10N 43°25' W 134°29'0 0.0 1023.9 19.1
2016-Sep-15 18:10N 43°25' W 134°29'1 0.6 1024.1 18.6
2016-Sep-15 17:10N 43°25' W 134°30'0 0.4 1023.6 18.5
2016-Sep-15 16:10N 43°25' W 134°30'1 0.7 1023.5 18.6
2016-Sep-15 15:10N 43°25' W 134°31'0 0.2 1023.3 18.6
2016-Sep-15 14:10N 43°25' W 134°30'0 0.4 1023.4 18.6
2016-Sep-15 13:10N 43°25' W 134°31'0 0.4 1023.6 18.6
2016-Sep-15 12:10N 43°26' W 134°31'1 0.3 1023.4 18.6
2016-Sep-15 10:10N 43°25' W 134°32'   1023.7 18.7

Dump ship's entire track history